Time;durP1;ratioP1;P1;durP2;ratioP2;P2;SDS_P1;SDS_P2;PMS_P1;PMS_P2;Temp;Humidity;BMP_temperature;BMP_pressure;BME280_temperature;BME280_humidity;BME280_pressure;Samples;Min_cycle;Max_cycle;Signal;HPM_P1;HPM_P2
2022/11/28 05:59:30;;;;;;;59.90;25.20;;;0.90;99.90;;;;;;7605356;19;20386;-70
2022/11/28 06:02:02;;;;;;;65.30;28.92;;;0.80;99.90;;;;;;7611780;19;20014;-69
2022/11/28 06:04:35;;;;;;;69.57;30.70;;;0.90;99.90;;;;;;7615549;19;20014;-71
2022/11/28 06:07:07;;;;;;;70.20;31.25;;;0.90;99.90;;;;;;7584724;19;20029;-71
2022/11/28 06:09:39;;;;;;;69.75;29.90;;;1.10;99.90;;;;;;7594065;19;20534;-73
2022/11/28 06:12:12;;;;;;;67.03;30.53;;;1.10;99.90;;;;;;7591814;19;20014;-73
2022/11/28 06:14:44;;;;;;;55.75;25.02;;;1.20;99.90;;;;;;7582846;19;20105;-73
2022/11/28 06:17:16;;;;;;;64.05;28.55;;;1.20;99.90;;;;;;7596155;19;20022;-73
2022/11/28 06:19:48;;;;;;;62.60;26.08;;;1.30;99.90;;;;;;7585769;19;20151;-74
2022/11/28 06:22:21;;;;;;;58.83;25.85;;;1.40;99.90;;;;;;7583175;19;21034;-71
2022/11/28 06:24:53;;;;;;;49.20;22.95;;;1.50;99.90;;;;;;7601808;19;20018;-72
2022/11/28 06:27:25;;;;;;;52.05;23.70;;;1.50;99.90;;;;;;7602867;19;20014;-71
2022/11/28 06:29:57;;;;;;;49.53;23.20;;;1.60;99.90;;;;;;7626219;19;20022;-72
2022/11/28 06:32:29;;;;;;;50.70;23.33;;;1.60;99.90;;;;;;7617553;19;20022;-72
2022/11/28 06:35:02;;;;;;;44.83;21.65;;;1.60;99.90;;;;;;7607455;19;20435;-73
2022/11/28 06:37:34;;;;;;;50.72;24.40;;;1.70;99.90;;;;;;7636209;19;20146;-72
2022/11/28 06:40:06;;;;;;;50.92;23.33;;;1.60;99.90;;;;;;7609006;19;20014;-72
2022/11/28 06:42:38;;;;;;;49.23;22.73;;;1.60;99.90;;;;;;7631914;19;20018;-72
2022/11/28 06:45:11;;;;;;;43.75;21.75;;;1.70;99.90;;;;;;7639770;19;20018;-71
2022/11/28 06:47:43;;;;;;;56.07;25.13;;;1.80;99.90;;;;;;7635420;19;20619;-71
2022/11/28 06:50:15;;;;;;;45.92;23.02;;;1.70;99.90;;;;;;7643793;19;20014;-72
2022/11/28 06:52:48;;;;;;;49.22;24.75;;;1.80;99.90;;;;;;7647101;19;20026;-72
2022/11/28 06:55:20;;;;;;;54.38;25.35;;;1.90;99.90;;;;;;7627956;19;20018;-71
2022/11/28 06:57:53;;;;;;;59.65;28.02;;;1.80;99.90;;;;;;7630623;19;20551;-72
2022/11/28 07:00:25;;;;;;;56.00;25.08;;;1.80;99.90;;;;;;7635285;19;20081;-72
2022/11/28 14:27:00;;;;;;;20.75;9.75;;;5.40;99.90;;;;;;7594533;19;20379;-73
2022/11/28 14:29:39;;;;;;;19.48;9.45;;;5.30;99.90;;;;;;7600069;19;20051;-74
2022/11/28 14:32:26;;;;;;;16.45;9.45;;;5.40;99.90;;;;;;7592279;19;21510;-72
2022/11/28 14:35:10;;;;;;;17.20;9.00;;;5.40;99.90;;;;;;7591750;19;20081;-75
2022/11/28 14:37:53;;;;;;;18.38;9.35;;;5.50;99.90;;;;;;7588183;19;20022;-70
2022/11/28 14:40:53;;;;;;;19.80;9.48;;;5.60;99.90;;;;;;7588564;19;20010;-73
2022/11/28 14:43:33;;;;;;;20.00;10.15;;;5.60;99.90;;;;;;7600089;19;20017;-75
2022/11/28 14:46:15;;;;;;;16.10;9.50;;;5.70;99.90;;;;;;7602035;19;20025;-74
2022/11/28 14:48:57;;;;;;;17.40;10.23;;;5.80;99.90;;;;;;7593782;19;20018;-73
2022/11/28 14:51:47;;;;;;;16.92;10.13;;;5.80;99.90;;;;;;7601455;19;20022;-73
2022/11/28 14:54:35;;;;;;;16.05;9.93;;;5.90;99.90;;;;;;7590469;19;20025;-71
2022/11/28 14:57:22;;;;;;;18.15;10.93;;;6.00;99.90;;;;;;7611262;19;20104;-73
2022/11/28 14:59:58;;;;;;;17.13;9.95;;;6.00;99.90;;;;;;7595897;19;20014;-75
2022/11/28 15:02:51;;;;;;;17.58;10.48;;;6.00;99.90;;;;;;7577236;19;20044;-74
2022/11/28 15:05:37;;;;;;;16.73;10.23;;;6.00;99.90;;;;;;7593005;19;20109;-72
2022/11/28 15:08:28;;;;;;;21.20;9.77;;;6.00;99.90;;;;;;7605560;19;20048;-74
2022/11/28 15:11:15;;;;;;;18.05;10.35;;;6.10;99.90;;;;;;7583775;19;20027;-74
2022/11/28 15:14:12;;;;;;;15.73;10.63;;;6.10;99.90;;;;;;7608803;19;20064;-75
2022/11/28 15:16:47;;;;;;;19.05;11.48;;;6.10;99.90;;;;;;7593391;19;20019;-74
2022/11/28 15:19:45;;;;;;;19.08;11.75;;;6.20;99.90;;;;;;7602356;19;20050;-75
2022/11/28 15:22:31;;;;;;;22.75;14.00;;;6.10;99.90;;;;;;7635209;19;21027;-74
2022/11/28 15:25:17;;;;;;;28.75;15.45;;;6.10;99.90;;;;;;7615376;19;20014;-74
2022/11/28 15:27:50;;;;;;;31.67;16.45;;;6.00;99.90;;;;;;7627909;19;20034;-74
2022/11/28 15:30:25;;;;;;;26.42;15.85;;;6.10;99.90;;;;;;7614358;19;20698;-72
2022/11/28 15:32:59;;;;;;;29.67;17.10;;;6.00;99.90;;;;;;7618022;19;21063;-73
2022/11/28 15:35:31;;;;;;;32.35;16.95;;;6.00;99.90;;;;;;7622869;19;20025;-75
2022/11/28 15:38:03;;;;;;;27.80;16.75;;;6.00;99.90;;;;;;7596893;19;20014;-74
2022/11/28 15:40:36;;;;;;;31.97;16.40;;;6.00;99.90;;;;;;7594719;19;20119;-74
2022/11/28 15:43:12;;;;;;;28.52;16.35;;;6.00;99.90;;;;;;7583979;19;20023;-74
2022/11/28 15:45:58;;;;;;;31.08;16.98;;;6.00;99.90;;;;;;7592858;19;20639;-75
2022/11/28 15:48:36;;;;;;;26.00;14.80;;;6.10;99.90;;;;;;7594358;19;20026;-75
2022/11/28 15:51:28;;;;;;;30.58;16.65;;;6.10;99.90;;;;;;7580484;19;20018;-73
2022/11/28 15:54:06;;;;;;;31.55;16.13;;;6.00;99.90;;;;;;7599772;19;20830;-72
2022/11/28 15:56:55;;;;;;;;;;;6.10;99.90;;;;;;7606380;19;20440;-73
2022/11/28 15:59:28;;;;;;;19.88;11.55;;;6.00;99.90;;;;;;7593786;19;19918;-73
2022/11/28 16:02:14;;;;;;;22.38;11.55;;;6.00;99.90;;;;;;7593425;19;20517;-72
2022/11/28 16:04:53;;;;;;;18.40;11.02;;;6.00;99.90;;;;;;7597585;19;20010;-71
2022/11/28 16:07:25;;;;;;;19.23;11.13;;;6.00;99.90;;;;;;7585171;19;20011;-71
2022/11/28 16:10:05;;;;;;;20.08;12.68;;;6.00;99.90;;;;;;7606273;19;20568;-71
2022/11/28 16:12:40;;;;;;;35.90;18.27;;;5.90;99.90;;;;;;7612105;19;20085;-72
2022/11/28 16:15:21;;;;;;;41.28;18.38;;;6.00;99.90;;;;;;7607262;19;20014;-71
2022/11/28 16:17:54;;;;;;;35.25;18.65;;;6.00;99.90;;;;;;7600341;19;20073;-74
2022/11/28 16:20:28;;;;;;;;;;;6.00;99.90;;;;;;7612305;19;20038;-73
2022/11/28 16:38:21;;;;;;;24.63;13.77;;;5.60;99.90;;;;;;7638756;19;20370;-71
2022/11/28 16:41:00;;;;;;;26.77;14.45;;;5.60;99.90;;;;;;7660514;19;20551;-72
2022/11/28 16:43:37;;;;;;;23.27;13.38;;;5.50;99.90;;;;;;7644505;19;20025;-72
2022/11/28 16:46:22;;;;;;;20.35;13.68;;;5.50;99.90;;;;;;7646140;19;20020;-72
2022/11/28 16:48:57;;;;;;;26.85;15.48;;;5.50;99.90;;;;;;7651384;19;20015;-72
2022/11/28 16:51:37;;;;;;;29.50;15.25;;;5.50;99.90;;;;;;7647933;19;20014;-73
2022/11/28 16:54:22;;;;;;;28.92;15.48;;;5.50;99.90;;;;;;7653864;19;20073;-72
2022/11/28 16:57:08;;;;;;;29.75;17.80;;;5.50;99.90;;;;;;7656009;19;20006;-72
2022/11/28 16:59:42;;;;;;;30.92;18.02;;;5.60;99.90;;;;;;7662272;19;20024;-72
2022/11/28 17:02:27;;;;;;;27.65;17.40;;;5.60;99.90;;;;;;7664914;19;20018;-72
2022/11/28 17:05:00;;;;;;;33.80;18.35;;;5.60;99.90;;;;;;7643691;19;20018;-73
2022/11/28 17:07:32;;;;;;;27.13;17.95;;;5.60;99.90;;;;;;7640166;19;20018;-73
2022/11/28 17:10:05;;;;;;;33.08;17.75;;;5.60;99.90;;;;;;7638853;19;20029;-73
2022/11/28 17:12:38;;;;;;;30.92;16.52;;;5.70;99.90;;;;;;7644561;19;20022;-73
2022/11/28 17:15:15;;;;;;;28.45;16.52;;;5.60;99.90;;;;;;7644662;19;20010;-73
2022/11/28 17:17:47;;;;;;;62.30;29.58;;;5.60;99.90;;;;;;7639739;19;20083;-73
2022/11/28 17:20:20;;;;;;;40.70;22.40;;;5.60;99.90;;;;;;7639661;19;20054;-73
2022/11/28 17:22:55;;;;;;;29.55;18.48;;;5.60;99.90;;;;;;7647405;19;20010;-73
2022/11/28 17:25:27;;;;;;;34.35;19.63;;;5.60;99.90;;;;;;7645528;19;20575;-73
2022/11/28 17:27:59;;;;;;;79.32;35.72;;;5.70;99.90;;;;;;7644213;19;20025;-72
2022/11/28 17:30:31;;;;;;;46.85;24.67;;;5.60;99.90;;;;;;7639341;19;20774;-73
2022/11/28 17:33:04;;;;;;;35.97;19.00;;;5.70;99.90;;;;;;7646969;19;20090;-73
2022/11/28 17:35:41;;;;;;;33.40;19.40;;;5.60;99.90;;;;;;7635919;19;20101;-73
2022/11/28 17:38:13;;;;;;;30.27;17.70;;;5.60;99.90;;;;;;7640634;19;20815;-73
2022/11/28 17:40:45;;;;;;;34.53;20.08;;;5.60;99.90;;;;;;7641393;19;20010;-75
2022/11/28 17:43:20;;;;;;;28.42;17.25;;;5.60;99.90;;;;;;7650767;19;20102;-72
2022/11/28 17:45:52;;;;;;;32.90;17.15;;;5.60;99.90;;;;;;7618738;19;20010;-72
2022/11/28 17:48:24;;;;;;;32.50;18.25;;;5.50;99.90;;;;;;7623029;19;20022;-73
2022/11/28 17:50:56;;;;;;;34.40;19.60;;;5.50;99.90;;;;;;7608465;19;20011;-73
2022/11/28 17:53:29;;;;;;;33.70;19.25;;;5.50;99.90;;;;;;7608581;19;20064;-73
2022/11/28 17:56:01;;;;;;;51.58;26.88;;;5.50;99.90;;;;;;7588348;19;20010;-73
2022/11/28 17:58:33;;;;;;;38.17;20.95;;;5.50;99.90;;;;;;7604308;19;20098;-73
2022/11/28 18:01:10;;;;;;;31.88;18.25;;;5.50;99.90;;;;;;7595812;19;20018;-72
2022/11/28 18:03:42;;;;;;;33.60;18.67;;;5.50;99.90;;;;;;7608248;19;20015;-73
2022/11/28 18:06:16;;;;;;;29.70;17.48;;;5.50;99.90;;;;;;7573510;19;20015;-73
2022/11/28 18:08:49;;;;;;;36.38;18.67;;;5.50;99.90;;;;;;7581476;19;20022;-73
2022/11/28 18:11:22;;;;;;;39.85;21.33;;;5.50;99.90;;;;;;7584595;19;20010;-73
2022/11/28 18:13:56;;;;;;;40.80;21.60;;;5.50;99.90;;;;;;7586939;19;20050;-74
2022/11/28 18:16:29;;;;;;;;;;;5.60;99.90;;;;;;7586258;19;20018;-75
2022/11/28 18:19:02;;;;;;;61.47;30.02;;;5.60;99.90;;;;;;7588680;19;19930;-75
2022/11/28 18:21:34;;;;;;;66.78;35.00;;;5.60;99.90;;;;;;7593667;19;20514;-75
2022/11/28 18:24:07;;;;;;;53.58;28.35;;;5.50;99.90;;;;;;7589409;19;20021;-75
2022/11/28 18:26:39;;;;;;;51.28;25.40;;;5.60;99.90;;;;;;7567842;19;20021;-74
2022/11/28 18:29:12;;;;;;;45.90;24.63;;;5.50;99.90;;;;;;7584374;19;20063;-74
2022/11/28 18:31:44;;;;;;;44.05;24.40;;;5.60;99.90;;;;;;7578902;19;20010;-75
2022/11/28 18:34:21;;;;;;;55.72;28.92;;;5.60;99.90;;;;;;7601755;19;20050;-75
2022/11/28 18:36:59;;;;;;;53.30;27.58;;;5.60;99.90;;;;;;7559662;19;20022;-74
2022/11/28 18:40:37;;;;;;;49.00;25.27;;;5.60;99.90;;;;;;7561052;19;20034;-74
2022/11/28 18:43:40;;;;;;;36.97;20.55;;;5.60;99.90;;;;;;7588443;19;20048;-75
2022/11/28 18:46:44;;;;;;;46.40;23.08;;;5.70;99.90;;;;;;7572714;19;20023;-74
2022/11/28 18:50:08;;;;;;;36.40;20.88;;;5.60;99.90;;;;;;7575585;19;20007;-75
2022/11/28 18:52:40;;;;;;;33.90;20.58;;;5.70;99.90;;;;;;7605420;19;20015;-75
2022/11/28 18:55:12;;;;;;;45.60;24.70;;;5.70;99.90;;;;;;7589798;19;20018;-77
2022/11/28 18:57:45;;;;;;;51.85;29.85;;;5.70;99.90;;;;;;7565730;19;20451;-74
2022/11/28 19:00:18;;;;;;;44.70;26.20;;;5.60;99.90;;;;;;7564729;19;27655;-73
